Time;durP1;ratioP1;P1;durP2;ratioP2;P2;SDS_P1;SDS_P2;PMS_P1;PMS_P2;Temp;Humidity;BMP_temperature;BMP_pressure;BME280_temperature;BME280_humidity;BME280_pressure;Samples;Min_cycle;Max_cycle;Signal;HPM_P1;HPM_P2
2023/10/07 00:01:40;;;;;;;;;;;;;;;12.62;100.00;102041.63;5114578;28;20252;-46
2023/10/07 00:04:09;;;;;;;;;;;;;;;12.61;100.00;102039.84;5113918;28;19926;-49
2023/10/07 00:06:37;;;;;;;;;;;;;;;12.61;100.00;102034.66;5114264;28;19938;-48
2023/10/07 00:09:08;;;;;;;;;;;;;;;12.59;100.00;102032.03;5114407;28;19915;-50
2023/10/07 00:11:35;;;;;;;;;;;;;;;12.59;100.00;102025.97;5113618;28;19911;-48
2023/10/07 00:14:00;;;;;;;;;;;;;;;12.60;100.00;102019.97;5114570;28;19911;-46
2023/10/07 00:16:25;;;;;;;;;;;;;;;12.60;100.00;102019.97;5114700;28;19916;-49
2023/10/07 00:18:51;;;;;;;;;;;;;;;12.59;100.00;102015.59;5113663;28;19912;-48
2023/10/07 00:21:24;;;;;;;;;;;;;;;12.59;100.00;102002.69;5114113;28;20395;-47
2023/10/07 00:23:52;;;;;;;;;;;;;;;12.59;100.00;102005.25;5114207;28;19919;-49
2023/10/07 00:26:17;;;;;;;;;;;;;;;12.58;100.00;102003.53;5113359;28;20006;-47
2023/10/07 00:28:51;;;;;;;;;;;;;;;12.61;100.00;102008.81;5114308;28;19935;-49
2023/10/07 00:31:22;;;;;;;;;;;;;;;12.64;100.00;102016.69;5114012;28;19926;-49
2023/10/07 00:33:52;;;;;;;;;;;;;;;12.67;100.00;102011.66;5113387;28;19912;-45
2023/10/07 00:38:59;;;;;;;;;;;;;;;12.67;100.00;102009.06;5113809;28;19946;-45
2023/10/07 00:41:27;;;;;;;;;;;;;;;12.68;100.00;102016.00;5113808;28;19939;-45
2023/10/07 00:43:58;;;;;;;;;;;;;;;12.66;100.00;102023.69;5113461;28;20275;-47
2023/10/07 00:46:28;;;;;;;;;;;;;;;12.65;100.00;102027.13;5112861;28;19912;-48
2023/10/07 00:48:57;;;;;;;;;;;;;;;12.65;100.00;102036.56;5113901;28;20271;-50
2023/10/07 00:51:35;;;;;;;;;;;;;;;12.66;100.00;102027.97;5113703;28;19918;-47
2023/10/07 00:54:16;;;;;;;;;;;;;;;12.63;100.00;102025.28;5112849;28;19957;-48
2023/10/07 00:56:43;;;;;;;;;;;;;;;12.63;100.00;102023.56;5113691;28;20366;-49
2023/10/07 00:59:09;;;;;;;;;;;;;;;12.63;100.00;102014.94;5113551;28;20364;-48
2023/10/07 01:01:36;;;;;;;;;;;;;;;12.62;100.00;102013.16;5112485;28;20010;-46
2023/10/07 01:04:06;;;;;;;;;;;;;;;12.60;100.00;102002.78;5113959;28;19912;-50
2023/10/07 01:06:31;;;;;;;;;;;;;;;12.59;100.00;102001.00;5113559;28;19915;-47
2023/10/07 01:09:07;;;;;;;;;;;;;;;12.58;100.00;102000.94;5113014;28;20369;-49
2023/10/07 01:11:37;;;;;;;;;;;;;;;12.58;100.00;101994.06;5113356;28;19911;-48
2023/10/07 01:14:05;;;;;;;;;;;;;;;12.57;100.00;101987.13;5113718;28;19912;-49
2023/10/07 01:19:18;;;;;;;;;;;;;;;12.55;100.00;101993.94;5113693;28;19918;-47
2023/10/07 01:21:53;;;;;;;;;;;;;;;12.56;100.00;101989.66;5112818;28;19911;-47
2023/10/07 01:29:59;;;;;;;;;;;;;;;12.57;100.00;102027.63;5101820;28;19971;-46
2023/10/07 01:32:31;;;;;;;;;;;;;;;12.56;100.00;102015.50;5113014;28;19915;-48
2023/10/07 01:34:57;;;;;;;;;;;;;;;12.56;100.00;102010.31;5113547;28;19911;-46
2023/10/07 01:37:23;;;;;;;;;;;;;;;12.54;100.00;102009.38;5112447;28;19919;-50
2023/10/07 01:39:49;;;;;;;;;;;;;;;12.53;100.00;102021.44;5113273;28;19935;-49
2023/10/07 01:42:35;;;;;;;;;;;;;;;12.51;100.00;102008.44;5112848;28;19985;-45
2023/10/07 01:45:09;;;;;;;;;;;;;;;12.49;100.00;102001.44;5113026;28;19912;-49
2023/10/07 01:47:35;;;;;;;;;;;;;;;12.48;100.00;102003.13;5113153;28;20057;-49
2023/10/07 01:50:03;;;;;;;;;;;;;;;12.47;100.00;101995.31;5112609;28;19994;-48
2023/10/07 01:52:29;;;;;;;;;;;;;;;12.46;100.00;101986.69;5113054;28;19912;-48
2023/10/07 01:54:55;;;;;;;;;;;;;;;12.47;100.00;101980.72;5114640;28;20412;-46
2023/10/07 01:57:20;;;;;;;;;;;;;;;12.50;100.00;101979.94;5115844;28;20060;-49
2023/10/07 01:59:45;;;;;;;;;;;;;;;12.52;100.00;101984.38;5117028;28;20049;-48
2023/10/07 02:02:13;;;;;;;;;;;;;;;12.57;100.00;101986.25;5116876;28;19912;-44
2023/10/07 02:04:38;;;;;;;;;;;;;;;12.58;100.00;101982.84;5116174;28;19919;-48
2023/10/07 02:07:03;;;;;;;;;;;;;;;12.61;100.00;101975.19;5116936;28;19911;-49
2023/10/07 02:09:35;;;;;;;;;;;;;;;12.63;100.00;101996.84;5116642;28;19919;-47
2023/10/07 02:12:01;;;;;;;;;;;;;;;12.64;100.00;101990.81;5116051;28;19908;-48
2023/10/07 02:14:27;;;;;;;;;;;;;;;12.67;100.00;101983.19;5116600;28;19911;-47
2023/10/07 02:16:53;;;;;;;;;;;;;;;12.67;100.00;101972.84;5116808;28;20361;-48
2023/10/07 02:19:29;;;;;;;;;;;;;;;12.68;100.00;101974.63;5097339;28;19941;-49
2023/10/07 02:21:59;;;;;;;;;;;;;;;12.72;100.00;101983.34;5116842;28;19912;-49
2023/10/07 02:24:28;;;;;;;;;;;;;;;12.74;100.00;101992.94;5116161;28;19916;-48
2023/10/07 02:26:55;;;;;;;;;;;;;;;12.76;100.00;101980.97;5116841;28;19998;-48
2023/10/07 02:29:21;;;;;;;;;;;;;;;12.79;100.00;101973.31;5116332;28;19915;-48
2023/10/07 02:31:49;;;;;;;;;;;;;;;12.81;100.00;101976.84;5115829;28;19912;-48
2023/10/07 02:34:28;;;;;;;;;;;;;;;12.84;100.00;101986.44;5115979;28;19916;-49
2023/10/07 02:37:10;;;;;;;;;;;;;;;12.88;100.00;101988.31;5116352;28;20367;-46
2023/10/07 02:39:45;;;;;;;;;;;;;;;12.91;100.00;101992.72;5115593;28;19963;-49
2023/10/07 02:42:11;;;;;;;;;;;;;;;12.94;100.00;101985.09;5116281;28;19991;-44
2023/10/07 02:44:37;;;;;;;;;;;;;;;12.96;100.00;101991.19;5116232;28;19953;-48
2023/10/07 02:47:11;;;;;;;;;;;;;;;12.99;100.00;101996.50;5115445;28;19911;-49
2023/10/07 02:49:37;;;;;;;;;;;;;;;13.01;100.00;101984.47;5116180;28;19911;-47
2023/10/07 02:52:02;;;;;;;;;;;;;;;13.05;100.00;101985.50;5115967;28;19912;-48
2023/10/07 02:54:33;;;;;;;;;;;;;;;13.09;100.00;101989.94;5115039;28;19999;-48
2023/10/07 02:57:24;;;;;;;;;;;;;;;13.13;100.00;101984.97;5115926;28;19919;-48
2023/10/07 03:00:00;;;;;;;;;;;;;;;13.15;100.00;101982.41;5115174;28;20002;-47
2023/10/07 03:02:37;;;;;;;;;;;;;;;13.18;100.00;101980.84;5115734;28;19994;-47
2023/10/07 03:05:13;;;;;;;;;;;;;;;13.22;100.00;101999.06;5115400;28;19912;-47
2023/10/07 03:07:41;;;;;;;;;;;;;;;13.24;100.00;101987.06;5114929;28;20388;-49
2023/10/07 03:10:32;;;;;;;;;;;;;;;13.26;100.00;101990.56;5115792;28;19999;-48
2023/10/07 03:12:58;;;;;;;;;;;;;;;13.29;100.00;101985.53;5115772;28;19912;-47
2023/10/07 03:18:02;;;;;;;;;;;;;;;13.34;100.00;101986.56;5115732;28;20386;-47
2023/10/07 03:20:46;;;;;;;;;;;;;;;13.37;100.00;101993.59;5115231;28;19919;-48
2023/10/07 03:23:15;;;;;;;;;;;;;;;13.39;100.00;101982.47;5115305;28;20370;-45
2023/10/07 03:28:17;;;;;;;;;;;;;;;13.45;100.00;101982.72;5114258;28;19918;-47
2023/10/07 03:30:51;;;;;;;;;;;;;;;13.47;100.00;101980.16;5115244;28;19912;-49
2023/10/07 03:33:17;;;;;;;;;;;;;;;13.49;100.00;101979.41;5114799;28;20278;-49
2023/10/07 03:36:08;;;;;;;;;;;;;;;13.52;100.00;101980.31;5114571;28;19912;-48
2023/10/07 03:38:35;;;;;;;;;;;;;;;13.55;100.00;101983.03;5114972;28;19912;-49
2023/10/07 03:41:00;;;;;;;;;;;;;;;13.55;100.00;101983.91;5115120;28;19939;-49
2023/10/07 03:43:26;;;;;;;;;;;;;;;13.57;100.00;101986.53;5113934;28;20007;-49
2023/10/07 03:45:51;;;;;;;;;;;;;;;13.58;100.00;101978.84;5114992;28;19911;-49
2023/10/07 03:48:31;;;;;;;;;;;;;;;13.59;100.00;101967.63;5114567;28;20286;-49
2023/10/07 03:51:06;;;;;;;;;;;;;;;13.59;100.00;101954.69;5114185;28;19912;-44
2023/10/07 03:53:32;;;;;;;;;;;;;;;13.61;100.00;101957.34;5114503;28;19915;-49
2023/10/07 03:56:01;;;;;;;;;;;;;;;13.62;100.00;101966.84;5114026;28;20013;-49
2023/10/07 03:58:27;;;;;;;;;;;;;;;13.62;100.00;101956.50;5114151;28;20367;-48
2023/10/07 04:00:53;;;;;;;;;;;;;;;13.63;100.00;101956.56;5114942;28;19912;-48
2023/10/07 04:03:23;;;;;;;;;;;;;;;13.63;100.00;101951.41;5113701;28;19911;-46
2023/10/07 04:05:49;;;;;;;;;;;;;;;13.64;100.00;101952.25;5114847;28;19965;-47
2023/10/07 04:08:14;;;;;;;;;;;;;;;13.64;100.00;101952.25;5114251;28;19919;-48
2023/10/07 04:10:45;;;;;;;;;;;;;;;13.65;100.00;101935.91;5113581;28;19912;-48
2023/10/07 04:13:11;;;;;;;;;;;;;;;13.66;100.00;101928.19;5114394;28;20423;-49
2023/10/07 04:15:51;;;;;;;;;;;;;;;13.68;100.00;101937.72;5114580;28;19912;-49
2023/10/07 04:18:17;;;;;;;;;;;;;;;13.68;100.00;101937.72;5112727;28;19912;-48
2023/10/07 04:20:51;;;;;;;;;;;;;;;13.69;100.00;101967.97;5114393;28;20256;-45
2023/10/07 04:23:24;;;;;;;;;;;;;;;13.70;100.00;101960.25;5114066;28;20355;-49
2023/10/07 04:25:50;;;;;;;;;;;;;;;13.71;100.00;101941.28;5113693;28;19926;-49
2023/10/07 04:28:15;;;;;;;;;;;;;;;13.73;100.00;101952.56;5113824;28;19915;-49
2023/10/07 04:30:46;;;;;;;;;;;;;;;13.74;100.00;101956.94;5114259;28;19911;-48
2023/10/07 04:33:11;;;;;;;;;;;;;;;13.77;100.00;101963.94;5112996;28;19918;-46
2023/10/07 04:35:38;;;;;;;;;;;;;;;13.78;100.00;101947.56;5114241;28;19911;-49
2023/10/07 04:38:18;;;;;;;;;;;;;;;13.79;100.00;101952.78;5113965;28;19915;-46
2023/10/07 04:43:37;;;;;;;;;;;;;;;13.82;100.00;101968.44;5113991;28;19936;-47
2023/10/07 04:46:22;;;;;;;;;;;;;;;13.85;100.00;101966.78;5113040;28;20378;-48
2023/10/07 04:48:56;;;;;;;;;;;;;;;13.86;100.00;101968.56;5114140;28;20263;-50
2023/10/07 04:52:06;;;;;;;;;;;;;;;13.87;100.00;101966.00;5113804;28;19923;-49
2023/10/07 04:54:11;;;;;;;;;;;;;;;13.89;100.00;101979.00;5104643;28;19964;-48
2023/10/07 04:56:36;;;;;;;;;;;;;;;13.90;100.00;101973.00;5113660;28;19912;-49
2023/10/07 04:59:10;;;;;;;;;;;;;;;13.92;100.00;101984.31;5113590;28;19923;-48
2023/10/07 05:01:36;;;;;;;;;;;;;;;13.93;100.00;101980.88;5113302;28;19938;-49
2023/10/07 05:04:04;;;;;;;;;;;;;;;13.95;100.00;101974.03;5113803;28;20351;-48
2023/10/07 05:06:42;;;;;;;;;;;;;;;13.94;100.00;101967.09;5112712;28;19912;-48
2023/10/07 05:09:18;;;;;;;;;;;;;;;13.94;100.00;101968.00;5113857;28;19918;-47
2023/10/07 05:11:45;;;;;;;;;;;;;;;13.96;100.00;101968.03;5113909;28;19919;-47
2023/10/07 05:14:11;;;;;;;;;;;;;;;13.96;100.00;101965.44;5112608;28;19912;-44
2023/10/07 05:16:39;;;;;;;;;;;;;;;13.96;100.00;101966.31;5113523;28;20010;-49
2023/10/07 05:19:19;;;;;;;;;;;;;;;13.97;100.00;101969.81;5113649;28;19912;-48
2023/10/07 05:21:44;;;;;;;;;;;;;;;13.98;100.00;101971.53;5112871;28;19949;-49
2023/10/07 05:24:11;;;;;;;;;;;;;;;13.99;100.00;101975.91;5113444;28;19911;-48
2023/10/07 05:26:40;;;;;;;;;;;;;;;13.99;100.00;101978.50;5113520;28;20006;-47
2023/10/07 05:29:07;;;;;;;;;;;;;;;13.99;100.00;101965.53;5114649;28;19911;-48
2023/10/07 05:31:33;;;;;;;;;;;;;;;13.97;100.00;101962.03;5117388;28;19938;-50
2023/10/07 05:33:59;;;;;;;;;;;;;;;13.98;100.00;101966.34;5117472;28;19912;-48
2023/10/07 05:36:29;;;;;;;;;;;;;;;13.97;100.00;101956.84;5116537;28;19931;-49
2023/10/07 05:38:55;;;;;;;;;;;;;;;13.96;100.00;101949.91;5117913;28;19915;-48
2023/10/07 05:41:25;;;;;;;;;;;;;;;13.95;100.00;101953.31;5117275;28;20007;-48
2023/10/07 05:43:51;;;;;;;;;;;;;;;13.94;100.00;101959.31;5117472;28;19972;-48
2023/10/07 05:46:17;;;;;;;;;;;;;;;13.92;100.00;101948.91;5116870;28;20270;-50
2023/10/07 05:48:43;;;;;;;;;;;;;;;13.92;100.00;101953.22;5116362;28;19918;-48
2023/10/07 05:51:08;;;;;;;;;;;;;;;13.92;100.00;101958.41;5117166;28;19912;-45
2023/10/07 05:53:36;;;;;;;;;;;;;;;13.91;100.00;101972.19;5116899;28;20350;-49
2023/10/07 05:56:05;;;;;;;;;;;;;;;13.90;100.00;101968.69;5116347;28;20377;-49
2023/10/07 05:58:32;;;;;;;;;;;;;;;13.91;100.00;101961.81;5116636;28;20700;-47
2023/10/07 06:00:58;;;;;;;;;;;;;;;13.91;100.00;101967.00;5116994;28;19911;-49
2023/10/07 06:03:25;;;;;;;;;;;;;;;13.91;100.00;101959.22;5115760;28;20377;-49
2023/10/07 06:05:51;;;;;;;;;;;;;;;13.92;100.00;101971.34;5117114;28;19915;-49
2023/10/07 06:08:16;;;;;;;;;;;;;;;13.92;100.00;101979.13;5116472;28;19918;-47
2023/10/07 06:10:49;;;;;;;;;;;;;;;13.92;100.00;101976.53;5115958;28;19959;-48
2023/10/07 06:13:17;;;;;;;;;;;;;;;13.94;100.00;101978.34;5116546;28;19964;-47
2023/10/07 06:15:43;;;;;;;;;;;;;;;13.95;100.00;101976.63;5116690;28;19912;-47
2023/10/07 06:18:08;;;;;;;;;;;;;;;13.98;100.00;101984.50;5116166;28;20373;-48
2023/10/07 06:20:46;;;;;;;;;;;;;;;13.97;100.00;101981.03;5116491;28;20274;-49
2023/10/07 06:23:15;;;;;;;;;;;;;;;14.00;100.00;101972.47;5116182;28;20328;-48
2023/10/07 06:25:50;;;;;;;;;;;;;;;14.02;100.00;101970.84;5115707;28;19951;-44
2023/10/07 06:31:22;;;;;;;;;;;;;;;14.06;100.00;101988.25;5115645;28;19935;-49
2023/10/07 06:34:03;;;;;;;;;;;;;;;14.10;100.00;101990.13;5114534;28;19912;-49
2023/10/07 06:36:30;;;;;;;;;;;;;;;14.12;100.00;102011.75;5115992;28;20011;-49
2023/10/07 06:38:58;;;;;;;;;;;;;;;14.14;100.00;102011.84;5115490;28;19941;-49
2023/10/07 06:41:24;;;;;;;;;;;;;;;14.16;100.00;102005.88;5115328;28;19911;-45
2023/10/07 06:43:53;;;;;;;;;;;;;;;14.16;100.00;101998.09;5116292;28;20401;-48
2023/10/07 06:46:21;;;;;;;;;;;;;;;14.20;100.00;102000.78;5115282;28;19935;-49
2023/10/07 06:48:50;;;;;;;;;;;;;;;14.21;100.00;101999.97;5116054;28;19915;-49
2023/10/07 06:51:15;;;;;;;;;;;;;;;14.23;100.00;101991.41;5115571;28;19994;-46
2023/10/07 06:53:43;;;;;;;;;;;;;;;14.27;100.00;102001.03;5115256;28;20013;-49
2023/10/07 06:56:12;;;;;;;;;;;;;;;14.31;100.00;101999.44;5116107;28;19919;-48
2023/10/07 06:58:38;;;;;;;;;;;;;;;14.36;100.00;102013.44;5115732;28;20033;-45
2023/10/07 07:01:16;;;;;;;;;;;;;;;14.37;100.00;102015.19;5115121;28;20365;-48
2023/10/07 07:03:42;;;;;;;;;;;;;;;14.39;100.00;102018.69;5115803;28;20256;-46
2023/10/07 07:06:16;;;;;;;;;;;;;;;14.39;100.00;102017.84;5115043;28;19997;-48
2023/10/07 07:08:41;;;;;;;;;;;;;;;14.40;100.00;102020.47;5115679;28;20421;-49
2023/10/07 07:11:10;;;;;;;;;;;;;;;14.43;100.00;102014.50;5115785;28;19912;-49
2023/10/07 07:13:43;;;;;;;;;;;;;;;14.47;100.00;102004.28;5115106;28;19958;-47
2023/10/07 07:16:08;;;;;;;;;;;;;;;14.57;100.00;102023.59;5115515;28;19919;-48
2023/10/07 07:18:34;;;;;;;;;;;;;;;14.63;100.00;102018.63;5115107;28;20287;-46
2023/10/07 07:23:45;;;;;;;;;;;;;;;14.77;100.00;102016.50;5115477;28;19919;-48
2023/10/07 07:26:11;;;;;;;;;;;;;;;14.85;100.00;102019.31;5115453;28;20356;-50
2023/10/07 07:28:42;;;;;;;;;;;;;;;14.91;100.00;102023.81;5114375;28;20355;-49
2023/10/07 07:31:10;;;;;;;;;;;;;;;14.93;100.00;102030.81;5115489;28;19916;-47
2023/10/07 07:33:36;;;;;;;;;;;;;;;14.94;100.00;102036.91;5115068;28;19915;-49
2023/10/07 07:36:07;;;;;;;;;;;;;;;14.93;100.00;102027.34;5114306;28;19919;-49
2023/10/07 07:38:43;;;;;;;;;;;;;;;14.90;100.00;102027.22;5114826;28;19912;-48
2023/10/07 07:41:09;;;;;;;;;;;;;;;14.86;100.00;102035.78;5114151;28;19912;-49
2023/10/07 07:43:41;;;;;;;;;;;;;;;14.92;100.00;102022.97;5114745;28;19912;-49
2023/10/07 07:46:51;;;;;;;;;;;;;;;15.09;100.00;102024.38;5115118;28;19907;-50
2023/10/07 07:49:05;;;;;;;;;;;;;;;15.29;100.00;102037.06;5105742;28;19915;-49
2023/10/07 07:51:37;;;;;;;;;;;;;;;15.42;100.00;102038.31;5114317;28;20223;-47
2023/10/07 07:54:02;;;;;;;;;;;;;;;15.47;100.00;102027.19;5114561;28;19962;-47
2023/10/07 07:56:30;;;;;;;;;;;;;;;15.46;100.00;102035.81;5113897;28;20351;-48
2023/10/07 07:58:55;;;;;;;;;;;;;;;15.42;100.00;102052.16;5114719;28;19958;-45
2023/10/07 08:01:28;;;;;;;;;;;;;;;15.41;100.00;102053.00;5114294;28;19967;-49
2023/10/07 08:03:55;;;;;;;;;;;;;;;15.37;100.00;102053.75;5113906;28;19957;-48
2023/10/07 08:06:20;;;;;;;;;;;;;;;15.40;100.00;102060.75;5114218;28;20256;-45
2023/10/07 08:08:46;;;;;;;;;;;;;;;15.45;100.00;102054.88;5114787;28;20362;-47
2023/10/07 08:11:14;;;;;;;;;;;;;;;15.47;100.00;102060.09;5113697;28;20002;-44
2023/10/07 08:13:39;;;;;;;;;;;;;;;15.54;100.00;102064.63;5114488;28;19912;-49
2023/10/07 08:16:05;;;;;;;;;;;;;;;15.63;100.00;102053.63;5114320;28;20332;-49
2023/10/07 08:18:30;;;;;;;;;;;;;;;15.69;100.00;102061.59;5113387;28;19923;-49
2023/10/07 08:21:06;;;;;;;;;;;;;;;15.76;100.00;102058.34;5114236;28;19955;-48
2023/10/07 08:23:36;;;;;;;;;;;;;;;15.85;100.00;102049.03;5113481;28;19912;-47
2023/10/07 08:26:10;;;;;;;;;;;;;;;15.92;100.00;102050.94;5114249;28;19914;-49
2023/10/07 08:31:20;;;;;;;;;;;;;;;16.11;100.00;102040.22;5113424;28;20335;-49
2023/10/07 08:34:09;;;;;;;;;;;;;;;16.24;100.00;102050.94;5114262;28;20006;-49
2023/10/07 08:36:37;;;;;;;;;;;;;;;16.38;100.00;102043.47;5113428;28;20027;-49
2023/10/07 08:39:08;;;;;;;;;;;;;;;16.50;100.00;102042.88;5113295;28;20006;-49
2023/10/07 08:41:34;;;;;;;;;;;;;;;16.61;100.00;102049.25;5113752;28;19934;-47
2023/10/07 08:44:13;;;;;;;;;;;;;;;16.74;100.00;102048.66;5113893;28;20359;-49
2023/10/07 08:46:39;;;;;;;;;;;;;;;16.89;100.00;102055.09;5113406;28;19934;-49
2023/10/07 08:49:11;;;;;;;;;;;;;;;16.97;100.00;102047.50;5113952;28;20367;-49
2023/10/07 08:51:41;;;;;;;;;;;;;;;17.04;100.00;102039.84;5113122;28;19931;-48
2023/10/07 08:54:17;;;;;;;;;;;;;;;17.15;100.00;102039.22;5113696;28;20010;-48
2023/10/07 08:56:49;;;;;;;;;;;;;;;17.18;100.00;102041.88;5113752;28;20266;-49
2023/10/07 08:59:15;;;;;;;;;;;;;;;17.24;100.00;102047.22;5112766;28;19943;-50
2023/10/07 09:01:42;;;;;;;;;;;;;;;17.25;100.00;102042.03;5114166;28;19911;-48
2023/10/07 09:04:07;;;;;;;;;;;;;;;17.28;100.00;102043.81;5113448;28;19912;-49
2023/10/07 09:06:38;;;;;;;;;;;;;;;17.27;100.00;102047.25;5112589;28;20006;-49
2023/10/07 09:09:06;;;;;;;;;;;;;;;17.34;100.00;102038.75;5113881;28;19916;-48
2023/10/07 09:11:32;;;;;;;;;;;;;;;17.51;100.00;102036.47;5113704;28;19911;-51
2023/10/07 09:14:02;;;;;;;;;;;;;;;17.58;100.00;102027.03;5112844;28;19965;-47
2023/10/07 09:16:32;;;;;;;;;;;;;;;17.57;100.00;102036.59;5113366;28;19911;-49
2023/10/07 09:18:59;;;;;;;;;;;;;;;17.63;100.00;102030.63;5113570;28;19947;-48
2023/10/07 09:21:33;;;;;;;;;;;;;;;17.80;100.00;102032.66;5112319;28;19911;-49
2023/10/07 09:24:02;;;;;;;;;;;;;;;17.99;100.00;102023.50;5113759;28;19999;-49
2023/10/07 09:26:33;;;;;;;;;;;;;;;18.20;100.00;102025.59;5112844;28;19957;-53
2023/10/07 09:28:59;;;;;;;;;;;;;;;18.39;100.00;102030.25;5113656;28;19945;-50
2023/10/07 09:31:27;;;;;;;;;;;;;;;18.55;100.00;102043.53;5113121;28;19907;-49
2023/10/07 09:33:55;;;;;;;;;;;;;;;18.75;100.00;102039.50;5112522;28;19922;-49
2023/10/07 09:41:37;;;;;;;;;;;;;;;19.53;98.52;102035.31;5112821;28;19922;-49
2023/10/07 09:44:03;;;;;;;;;;;;;;;19.68;97.86;102029.38;5113332;28;19919;-50
2023/10/07 09:46:29;;;;;;;;;;;;;;;19.84;96.69;102033.06;5112944;28;20283;-49
2023/10/07 09:48:57;;;;;;;;;;;;;;;19.93;95.80;102033.16;5112723;28;19912;-48
2023/10/07 09:51:25;;;;;;;;;;;;;;;20.10;96.34;102033.28;5113003;28;20282;-49
2023/10/07 09:53:50;;;;;;;;;;;;;;;20.28;92.64;102031.72;5113223;28;19943;-48
2023/10/07 09:56:38;;;;;;;;;;;;;;;20.20;91.85;102023.78;5112083;28;19954;-48
2023/10/07 09:59:13;;;;;;;;;;;;;;;20.37;91.85;102027.44;5113075;28;19961;-48
2023/10/07 10:01:53;;;;;;;;;;;;;;;20.59;93.44;102032.81;5112569;28;19916;-47
2023/10/07 10:04:22;;;;;;;;;;;;;;;20.80;90.50;102031.22;5112875;28;19912;-50
2023/10/07 10:06:50;;;;;;;;;;;;;;;20.84;85.39;102028.66;5113191;28;20010;-50
2023/10/07 10:09:23;;;;;;;;;;;;;;;20.72;84.32;102034.69;5111859;28;19956;-47
2023/10/07 10:15:07;;;;;;;;;;;;;;;20.93;89.17;102043.56;5113141;28;19985;-49
2023/10/07 10:17:33;;;;;;;;;;;;;;;21.11;88.46;102058.50;5115668;28;19911;-49
2023/10/07 10:20:11;;;;;;;;;;;;;;;21.41;86.54;102071.72;5117047;28;19911;-49
2023/10/07 10:22:38;;;;;;;;;;;;;;;21.48;80.98;102063.00;5116807;28;19907;-49
2023/10/07 10:25:14;;;;;;;;;;;;;;;21.52;86.76;102062.16;5115959;28;19919;-48
2023/10/07 10:27:47;;;;;;;;;;;;;;;21.74;81.50;102070.13;5116562;28;19915;-49
2023/10/07 10:30:23;;;;;;;;;;;;;;;21.58;84.20;102063.97;5115789;28;19998;-50
2023/10/07 10:32:51;;;;;;;;;;;;;;;21.62;82.00;102066.59;5116841;28;19915;-47
2023/10/07 10:35:21;;;;;;;;;;;;;;;21.77;81.57;102071.00;5116029;28;19916;-49
2023/10/07 10:37:54;;;;;;;;;;;;;;;21.81;77.71;102066.66;5115873;28;19915;-48
2023/10/07 10:40:20;;;;;;;;;;;;;;;21.75;79.54;102072.75;5116086;28;19953;-48
2023/10/07 10:42:54;;;;;;;;;;;;;;;21.89;79.34;102072.78;5116175;28;19964;-50
2023/10/07 10:45:20;;;;;;;;;;;;;;;22.08;81.76;102076.31;5115436;28;19918;-49
2023/10/07 10:47:50;;;;;;;;;;;;;;;22.15;77.38;102062.31;5116690;28;19916;-49
2023/10/07 10:50:17;;;;;;;;;;;;;;;22.18;76.72;102064.06;5116181;28;19916;-49
2023/10/07 10:52:42;;;;;;;;;;;;;;;22.00;74.92;102068.44;5115387;28;19951;-49
2023/10/07 10:55:08;;;;;;;;;;;;;;;21.83;76.93;102064.88;5115802;28;19963;-49
2023/10/07 10:57:38;;;;;;;;;;;;;;;21.80;78.84;102064.91;5115512;28;19915;-48
2023/10/07 11:00:16;;;;;;;;;;;;;;;22.04;78.34;102057.06;5115202;28;20355;-50
2023/10/07 11:02:41;;;;;;;;;;;;;;;22.50;79.89;102064.13;5116066;28;19919;-50
2023/10/07 11:05:08;;;;;;;;;;;;;;;22.75;72.70;102048.31;5115290;28;19913;-49
2023/10/07 11:07:36;;;;;;;;;;;;;;;22.73;68.77;102050.06;5115342;28;20259;-51
2023/10/07 11:10:04;;;;;;;;;;;;;;;22.76;73.27;102051.81;5115987;28;19911;-50
2023/10/07 11:12:32;;;;;;;;;;;;;;;22.99;74.64;102052.59;5114716;28;19912;-50
2023/10/07 11:15:14;;;;;;;;;;;;;;;23.16;68.54;102056.97;5115630;28;19950;-50
2023/10/07 11:17:52;;;;;;;;;;;;;;;23.28;69.32;102051.69;5115538;28;19912;-49
2023/10/07 11:20:19;;;;;;;;;;;;;;;23.44;69.69;102043.72;5114557;28;19915;-49
2023/10/07 11:22:45;;;;;;;;;;;;;;;23.42;67.07;102041.09;5115615;28;19911;-46
2023/10/07 11:25:14;;;;;;;;;;;;;;;23.27;68.07;102042.03;5115334;28;19911;-45
2023/10/07 11:27:42;;;;;;;;;;;;;;;23.13;64.52;102047.31;5114417;28;20010;-49
2023/10/07 11:30:11;;;;;;;;;;;;;;;23.09;65.68;102039.44;5115238;28;20002;-50
2023/10/07 11:32:39;;;;;;;;;;;;;;;23.05;66.32;102042.94;5115316;28;20056;-50
2023/10/07 11:35:15;;;;;;;;;;;;;;;23.19;69.27;102041.19;5114496;28;19919;-49
2023/10/07 11:37:46;;;;;;;;;;;;;;;23.20;68.32;102040.28;5115305;28;19912;-50
2023/10/07 11:40:11;;;;;;;;;;;;;;;23.21;66.50;102036.78;5114076;28;19911;-48
2023/10/07 11:42:37;;;;;;;;;;;;;;;23.26;66.62;102040.28;5115103;28;20319;-49
2023/10/07 11:45:04;;;;;;;;;;;;;;;23.45;67.69;102030.53;5114883;28;20331;-50
2023/10/07 11:47:30;;;;;;;;;;;;;;;23.72;66.61;102043.53;5113998;28;19944;-48
2023/10/07 11:49:55;;;;;;;;;;;;;;;23.80;63.14;102039.13;5115122;28;20010;-50
2023/10/07 11:52:20;;;;;;;;;;;;;;;23.73;64.00;102026.88;5114756;28;19965;-50
2023/10/07 11:54:46;;;;;;;;;;;;;;;23.57;63.09;102039.25;5114517;28;19915;-49
2023/10/07 11:57:13;;;;;;;;;;;;;;;23.44;63.48;102039.31;5114383;28;20002;-50
2023/10/07 11:59:41;;;;;;;;;;;;;;;23.34;64.04;102043.75;5114666;28;19912;-50
2023/10/07 12:02:10;;;;;;;;;;;;;;;23.26;63.33;102040.28;5114147;28;19915;-48
2023/10/07 12:04:48;;;;;;;;;;;;;;;23.07;63.28;102041.19;5114432;28;19912;-48
2023/10/07 12:07:16;;;;;;;;;;;;;;;22.69;67.48;102049.19;5114287;28;20359;-48
2023/10/07 12:09:42;;;;;;;;;;;;;;;22.61;69.05;102040.44;5113628;28;20359;-50
2023/10/07 12:12:10;;;;;;;;;;;;;;;22.91;68.08;102037.75;5114334;28;19911;-50
2023/10/07 12:14:35;;;;;;;;;;;;;;;23.21;68.54;102049.94;5114163;28;19912;-50
2023/10/07 12:17:01;;;;;;;;;;;;;;;23.47;65.84;102041.06;5113770;28;19971;-47
2023/10/07 12:19:27;;;;;;;;;;;;;;;23.75;67.71;102038.28;5114226;28;19915;-49
2023/10/07 12:21:52;;;;;;;;;;;;;;;24.08;62.62;102036.28;5114308;28;20381;-50
2023/10/07 12:24:18;;;;;;;;;;;;;;;24.14;60.22;102038.88;5113201;28;19912;-49
2023/10/07 12:26:47;;;;;;;;;;;;;;;24.11;61.56;102042.41;5114235;28;19912;-49
2023/10/07 12:29:13;;;;;;;;;;;;;;;23.95;59.78;102041.69;5113793;28;20378;-50
2023/10/07 12:31:39;;;;;;;;;;;;;;;23.65;60.14;102043.59;5113491;28;20006;-50
2023/10/07 12:34:05;;;;;;;;;;;;;;;23.58;61.15;102041.88;5114200;28;19918;-51
2023/10/07 12:36:30;;;;;;;;;;;;;;;23.59;61.17;102034.84;5113090;28;19915;-49
2023/10/07 12:38:56;;;;;;;;;;;;;;;23.71;61.50;102052.34;5113598;28;19912;-50
2023/10/07 12:41:21;;;;;;;;;;;;;;;23.49;60.59;102050.69;5113567;28;19916;-50
2023/10/07 12:43:47;;;;;;;;;;;;;;;23.48;62.50;102045.44;5113357;28;19912;-49
2023/10/07 12:46:14;;;;;;;;;;;;;;;23.49;62.62;102047.19;5113587;28;20011;-50
2023/10/07 12:48:40;;;;;;;;;;;;;;;23.62;63.55;102040.97;5113900;28;20002;-49
2023/10/07 12:51:06;;;;;;;;;;;;;;;23.61;59.89;102052.38;5113048;28;19951;-48
2023/10/07 12:53:31;;;;;;;;;;;;;;;23.52;60.70;102049.78;5113471;28;19916;-50
2023/10/07 12:55:56;;;;;;;;;;;;;;;23.39;60.29;102029.72;5113966;28;19915;-49
2023/10/07 12:58:26;;;;;;;;;;;;;;;23.37;62.80;102041.97;5112555;28;19943;-49
2023/10/07 13:00:52;;;;;;;;;;;;;;;23.49;61.91;102039.31;5114109;28;19912;-49
2023/10/07 13:03:17;;;;;;;;;;;;;;;23.66;60.66;102029.53;5113482;28;19912;-47
2023/10/07 13:05:45;;;;;;;;;;;;;;;23.73;60.21;102040.03;5112939;28;20290;-50
2023/10/07 13:08:17;;;;;;;;;;;;;;;23.59;59.88;102040.09;5113599;28;19911;-45
2023/10/07 13:10:42;;;;;;;;;;;;;;;23.55;62.26;102039.28;5113935;28;19912;-48
2023/10/07 13:13:08;;;;;;;;;;;;;;;23.71;62.25;102041.81;5112829;28;19907;-50
2023/10/07 13:15:35;;;;;;;;;;;;;;;23.78;62.20;102017.19;5113244;28;19912;-50
2023/10/07 13:18:02;;;;;;;;;;;;;;;23.77;59.67;102033.84;5113625;28;19970;-50